createdAt,value
2018-07-22T00:00:50.641Z,82.74
2018-07-22T00:01:52.442Z,82.97
2018-07-22T00:02:53.224Z,82.99
2018-07-22T00:03:54.001Z,83.13
2018-07-22T00:04:54.786Z,83.49
2018-07-22T00:05:55.556Z,83.44
2018-07-22T00:06:56.364Z,83.37
2018-07-22T00:07:57.137Z,83.29
2018-07-22T00:08:57.912Z,83.28
2018-07-22T00:09:58.687Z,83.34
2018-07-22T00:10:59.464Z,83.05
2018-07-22T00:12:00.268Z,83.11
2018-07-22T00:13:02.043Z,83.12
2018-07-22T00:14:01.842Z,83.12
2018-07-22T00:15:01.596Z,83.23
2018-07-22T00:16:03.364Z,83.21
2018-07-22T00:17:04.951Z,83.25
2018-07-22T00:18:04.820Z,83.25
2018-07-22T00:19:04.520Z,83.23
2018-07-22T00:20:06.296Z,83.32
2018-07-22T00:21:07.070Z,83.38
2018-07-22T00:22:07.875Z,83.44
2018-07-22T00:23:08.650Z,83.38
2018-07-22T00:24:09.425Z,83.22
2018-07-22T00:25:10.211Z,83.29
2018-07-22T00:26:10.980Z,83.23
2018-07-22T00:27:11.785Z,83.24
2018-07-22T00:28:12.561Z,83.15
2018-07-22T00:29:13.380Z,83.14
2018-07-22T00:30:13.112Z,83.04
2018-07-22T00:31:15.329Z,83.33
2018-07-22T00:44:04.017Z,82.95
2018-07-22T00:45:04.793Z,82.91
2018-07-22T00:46:05.566Z,83.01
2018-07-22T00:47:06.342Z,82.78
2018-07-22T00:48:07.116Z,82.87
2018-07-22T00:49:07.921Z,83.12
2018-07-22T00:50:08.697Z,83.32
2018-07-22T00:51:09.470Z,83.24
2018-07-22T00:52:10.247Z,83.00
2018-07-22T00:53:11.020Z,82.90
2018-07-22T00:54:11.827Z,83.09
2018-07-22T00:55:12.603Z,82.85
2018-07-22T00:56:13.383Z,82.83
2018-07-22T00:57:14.155Z,82.92
2018-07-22T00:58:14.928Z,82.88
2018-07-22T00:59:15.747Z,82.87
2018-07-22T01:00:16.550Z,82.74
2018-07-22T01:01:16.294Z,82.59
2018-07-22T01:02:18.062Z,82.80
2018-07-22T01:03:18.861Z,82.91
2018-07-22T01:04:19.638Z,83.01
2018-07-22T01:05:20.451Z,82.68
2018-07-22T01:06:20.199Z,82.98
2018-07-22T01:07:21.969Z,83.26
2018-07-22T01:08:22.742Z,83.17
2018-07-22T01:09:23.543Z,83.15
2018-07-22T01:10:24.326Z,83.19
2018-07-22T01:11:25.096Z,82.97
2018-07-22T01:12:25.872Z,82.99
2018-07-22T01:13:26.643Z,82.91
2018-07-22T01:14:27.449Z,82.97
2018-07-22T01:15:28.219Z,83.05
2018-07-22T01:16:29.000Z,82.80
2018-07-22T01:17:29.772Z,82.70
2018-07-22T01:18:30.550Z,82.83
2018-07-22T01:19:31.352Z,82.62
2018-07-22T01:20:32.132Z,82.69
2018-07-22T01:21:32.905Z,82.78
2018-07-22T01:22:33.682Z,82.70
2018-07-22T01:23:34.458Z,82.66
2018-07-22T01:24:35.272Z,82.82
2018-07-22T01:25:36.038Z,82.88
2018-07-22T01:26:36.820Z,82.80
2018-07-22T01:27:37.590Z,82.73
2018-07-22T01:28:38.372Z,82.98
2018-07-22T01:29:39.172Z,82.94
2018-07-22T01:30:39.947Z,82.97
2018-07-22T01:31:40.727Z,82.96
2018-07-22T01:32:41.503Z,82.87
2018-07-22T01:33:42.284Z,83.00
2018-07-22T01:34:43.085Z,83.14
2018-07-22T01:35:43.863Z,83.12
2018-07-22T01:36:44.638Z,82.94
2018-07-22T01:37:45.413Z,83.26
2018-07-22T01:38:46.188Z,83.00
2018-07-22T01:39:46.990Z,82.91
2018-07-22T01:40:47.772Z,83.07
2018-07-22T01:41:48.544Z,83.15
2018-07-22T01:42:49.323Z,83.13
2018-07-22T01:43:50.098Z,82.83
2018-07-22T01:44:50.905Z,82.82
2018-07-22T01:45:51.681Z,82.82
2018-07-22T01:46:52.457Z,82.74
2018-07-22T01:47:53.253Z,83.04
2018-07-22T01:48:54.014Z,83.04
2018-07-22T01:49:54.833Z,83.08
2018-07-22T01:50:55.594Z,82.88
2018-07-22T01:51:56.374Z,82.86
2018-07-22T01:52:57.145Z,83.27
2018-07-22T01:53:57.925Z,83.17
2018-07-22T01:54:58.741Z,83.09
2018-07-22T01:55:59.516Z,82.88
2018-07-22T01:57:00.292Z,82.99
2018-07-22T01:58:01.071Z,82.89
2018-07-22T01:59:01.840Z,83.02
2018-07-22T02:00:02.653Z,82.96
2018-07-22T02:01:03.421Z,83.08
2018-07-22T02:02:04.201Z,83.00
2018-07-22T02:03:04.971Z,82.91
2018-07-22T02:04:05.749Z,82.96
2018-07-22T02:05:06.550Z,82.79
2018-07-22T02:06:07.327Z,82.66
2018-07-22T02:07:08.103Z,82.69
2018-07-22T02:08:08.877Z,82.80
2018-07-22T02:09:09.655Z,82.78
2018-07-22T02:10:10.461Z,82.70
2018-07-22T02:11:11.238Z,82.63
2018-07-22T02:12:12.014Z,82.62
2018-07-22T02:13:12.791Z,82.64
2018-07-22T02:14:13.566Z,82.74
2018-07-22T02:15:14.372Z,82.89
2018-07-22T02:16:15.153Z,82.71
2018-07-22T02:17:15.925Z,82.77
2018-07-22T02:18:16.704Z,82.81
2018-07-22T02:19:17.475Z,83.01
2018-07-22T02:20:18.278Z,82.87
2018-07-22T02:21:19.053Z,82.87
2018-07-22T02:22:19.830Z,83.10
2018-07-22T02:23:20.604Z,83.12
2018-07-22T02:24:21.379Z,83.17
2018-07-22T02:25:22.183Z,83.33
2018-07-22T02:26:22.963Z,83.21
2018-07-22T02:27:23.741Z,83.23
2018-07-22T02:28:24.517Z,83.02
2018-07-22T02:29:25.292Z,82.91
2018-07-22T02:30:26.104Z,83.05
2018-07-22T02:31:26.872Z,83.17
2018-07-22T02:32:27.653Z,83.46
2018-07-22T02:33:28.891Z,83.28
2018-07-22T02:34:29.155Z,83.12
2018-07-22T02:35:28.438Z,83.23
2018-07-22T02:42:13.133Z,83.03
2018-07-22T02:43:13.909Z,83.02
2018-07-22T02:44:14.695Z,83.27
2018-07-22T02:45:15.470Z,83.30
2018-07-22T02:46:16.277Z,83.31
2018-07-22T02:47:17.045Z,83.39
2018-07-22T02:48:17.819Z,83.37
2018-07-22T02:49:18.597Z,83.43
2018-07-22T02:50:19.368Z,83.27
2018-07-22T02:51:20.189Z,83.25
2018-07-22T02:52:19.946Z,83.18
2018-07-22T02:53:21.722Z,83.18
2018-07-22T02:54:22.494Z,83.25
2018-07-22T02:55:23.273Z,83.37
2018-07-22T02:56:24.082Z,83.62
2018-07-22T02:57:24.856Z,83.87
2018-07-22T02:58:25.629Z,83.75
2018-07-22T02:59:26.406Z,83.68
2018-07-22T03:00:27.179Z,83.80
2018-07-22T03:01:27.982Z,84.05
2018-07-22T03:02:28.757Z,83.99
2018-07-22T03:03:29.585Z,84.08
2018-07-22T03:04:29.308Z,84.06
2018-07-22T03:05:31.088Z,83.99
2018-07-22T03:06:31.891Z,83.77
2018-07-22T03:07:32.668Z,83.78
2018-07-22T03:08:33.446Z,83.88
2018-07-22T03:09:34.223Z,83.54
2018-07-22T03:10:34.995Z,83.96
2018-07-22T03:11:35.796Z,84.08
2018-07-22T03:12:36.574Z,83.96
2018-07-22T03:13:37.351Z,84.01
2018-07-22T03:14:38.128Z,83.67
2018-07-22T03:15:38.899Z,83.74
2018-07-22T03:16:39.703Z,83.63
2018-07-22T03:17:40.481Z,83.99
2018-07-22T03:18:41.255Z,83.85
2018-07-22T03:19:42.034Z,83.89
2018-07-22T03:20:42.807Z,83.65
2018-07-22T03:21:43.612Z,83.59
2018-07-22T03:22:44.387Z,83.52
2018-07-22T03:23:46.163Z,83.67
2018-07-22T03:24:45.933Z,83.89
2018-07-22T03:25:46.711Z,83.61
2018-07-22T03:26:47.514Z,83.59
2018-07-22T03:27:48.300Z,83.76
2018-07-22T03:28:49.079Z,83.75
2018-07-22T03:29:49.850Z,84.00
2018-07-22T03:30:50.630Z,83.94
2018-07-22T03:31:51.434Z,83.94
2018-07-22T03:32:52.211Z,83.81
2018-07-22T03:33:52.984Z,84.04
2018-07-22T03:34:53.762Z,84.04
2018-07-22T03:35:54.536Z,83.89
2018-07-22T03:36:55.341Z,83.81
2018-07-22T03:37:56.121Z,83.72
2018-07-22T03:38:56.901Z,83.88
2018-07-22T03:39:57.675Z,83.91
2018-07-22T03:40:58.450Z,83.82
2018-07-22T03:41:58.255Z,83.90
2018-07-22T03:43:00.036Z,83.91
2018-07-22T03:44:00.812Z,84.00
2018-07-22T03:45:01.584Z,83.80
2018-07-22T03:46:02.363Z,83.89
2018-07-22T03:47:03.163Z,83.90
2018-07-22T03:48:03.940Z,83.97
2018-07-22T03:49:04.717Z,83.74
2018-07-22T03:50:05.489Z,83.91
2018-07-22T03:51:06.266Z,83.85
2018-07-22T03:52:07.074Z,84.10
2018-07-22T03:53:07.848Z,84.18
2018-07-22T03:54:08.624Z,84.14
2018-07-22T03:55:09.409Z,83.86
2018-07-22T03:56:10.178Z,83.93
2018-07-22T03:57:10.983Z,83.88
2018-07-22T03:58:11.765Z,83.71
2018-07-22T03:59:12.535Z,83.86
2018-07-22T04:00:13.313Z,83.87
2018-07-22T04:01:14.088Z,83.97
2018-07-22T04:02:14.891Z,83.90
2018-07-22T04:03:15.670Z,83.76
2018-07-22T04:04:16.444Z,83.86
2018-07-22T04:05:17.238Z,83.81
2018-07-22T04:06:18.004Z,83.92
2018-07-22T04:07:18.815Z,83.91
2018-07-22T04:08:19.587Z,83.96
2018-07-22T04:09:20.364Z,84.00
2018-07-22T04:10:21.137Z,84.02
2018-07-22T04:11:21.916Z,84.22
2018-07-22T04:12:22.727Z,84.26
2018-07-22T04:13:23.509Z,84.24
2018-07-22T04:14:24.289Z,83.99
2018-07-22T04:15:25.060Z,84.13
2018-07-22T04:16:25.841Z,84.08
2018-07-22T04:17:26.641Z,84.02
2018-07-22T04:18:27.416Z,84.13
2018-07-22T04:19:28.195Z,84.08
2018-07-22T04:20:28.981Z,84.14
2018-07-22T04:21:29.809Z,84.13
2018-07-22T04:22:29.557Z,84.02
2018-07-22T04:23:31.334Z,83.83
2018-07-22T04:24:32.117Z,83.68
2018-07-22T04:25:32.886Z,83.56
2018-07-22T04:26:33.668Z,83.40
2018-07-22T04:27:34.470Z,83.43
2018-07-22T04:28:35.246Z,83.42
2018-07-22T04:29:36.049Z,83.27
2018-07-22T04:30:36.812Z,83.21
2018-07-22T04:31:37.670Z,83.22
2018-07-22T04:32:37.400Z,83.11
2018-07-22T04:33:39.604Z,82.95
2018-07-22T04:38:37.890Z,82.82
2018-07-22T04:39:38.669Z,82.80
2018-07-22T04:40:39.437Z,82.83
2018-07-22T04:41:40.211Z,82.92
2018-07-22T04:42:40.988Z,83.00
2018-07-22T04:43:41.800Z,83.05
2018-07-22T04:44:42.569Z,82.98
2018-07-22T04:45:43.353Z,83.08
2018-07-22T04:46:44.115Z,82.96
2018-07-22T04:47:44.897Z,82.89
2018-07-22T04:48:45.697Z,83.01
2018-07-22T04:49:46.466Z,82.77
2018-07-22T04:50:47.251Z,82.68
2018-07-22T04:51:48.020Z,82.75
2018-07-22T04:52:48.798Z,82.78
2018-07-22T04:53:49.600Z,83.00
2018-07-22T04:54:50.371Z,82.86
2018-07-22T04:55:51.151Z,82.53
2018-07-22T04:56:51.924Z,82.72
2018-07-22T04:57:52.696Z,82.98
2018-07-22T04:58:53.499Z,82.65
2018-07-22T04:59:54.275Z,82.82
2018-07-22T05:00:55.049Z,82.60
2018-07-22T05:01:55.827Z,82.48
2018-07-22T05:02:56.601Z,82.50
2018-07-22T05:03:57.400Z,82.62
2018-07-22T05:04:58.179Z,82.68
2018-07-22T05:05:58.952Z,82.59
2018-07-22T05:06:59.726Z,82.45
2018-07-22T05:08:00.499Z,82.30
2018-07-22T05:09:01.306Z,82.57
2018-07-22T05:10:02.093Z,82.55
2018-07-22T05:11:02.861Z,82.42
2018-07-22T05:12:03.633Z,82.38
2018-07-22T05:13:04.412Z,82.62
2018-07-22T05:14:05.227Z,82.75
2018-07-22T05:15:05.996Z,83.05
2018-07-22T05:16:06.773Z,83.37
2018-07-22T05:17:07.550Z,83.38
2018-07-22T05:18:08.324Z,83.06
2018-07-22T05:19:09.127Z,82.84
2018-07-22T05:20:09.905Z,82.85
2018-07-22T05:21:10.687Z,82.91
2018-07-22T05:22:11.464Z,82.85
2018-07-22T05:23:12.240Z,82.93
2018-07-22T05:24:13.041Z,82.85
2018-07-22T05:25:13.829Z,81.88
2018-07-22T05:26:14.594Z,81.38
2018-07-22T05:27:15.387Z,80.88
2018-07-22T05:28:16.198Z,80.42
2018-07-22T05:29:15.955Z,81.03
2018-07-22T05:30:17.731Z,81.03
2018-07-22T05:31:18.515Z,80.42
2018-07-22T05:32:19.289Z,78.66
2018-07-22T05:33:20.068Z,79.41
2018-07-22T05:34:20.870Z,79.71
2018-07-22T05:35:21.652Z,79.95
2018-07-22T05:36:22.423Z,79.32
2018-07-22T05:37:23.203Z,74.70
2018-07-22T05:38:23.975Z,73.54
2018-07-22T05:39:24.777Z,73.85
2018-07-22T05:40:25.553Z,72.27
2018-07-22T05:41:26.329Z,72.22
2018-07-22T05:42:27.110Z,73.25
2018-07-22T05:43:27.882Z,74.99
2018-07-22T05:44:28.708Z,74.95
2018-07-22T05:45:29.471Z,75.88
2018-07-22T05:46:30.251Z,75.06
2018-07-22T05:47:31.021Z,74.00
2018-07-22T05:48:31.807Z,75.74
2018-07-22T05:49:32.603Z,76.49
2018-07-22T05:50:33.379Z,76.42
2018-07-22T05:51:34.156Z,76.76
2018-07-22T05:52:34.929Z,75.73
2018-07-22T05:53:35.704Z,71.46
2018-07-22T05:54:36.506Z,71.28
2018-07-22T05:55:37.281Z,71.23
2018-07-22T05:56:38.055Z,69.09
2018-07-22T05:57:38.828Z,69.24
2018-07-22T05:58:39.608Z,69.51
2018-07-22T05:59:40.415Z,69.79
2018-07-22T06:00:41.188Z,70.69
2018-07-22T06:01:41.964Z,71.58
2018-07-22T06:02:42.742Z,73.94
2018-07-22T06:03:43.517Z,73.90
2018-07-22T06:04:44.320Z,73.68
2018-07-22T06:05:45.095Z,73.52
2018-07-22T06:06:45.869Z,73.03
2018-07-22T06:07:46.645Z,73.12
2018-07-22T06:08:47.425Z,72.29
2018-07-22T06:09:48.232Z,70.87
2018-07-22T06:10:48.999Z,70.33
2018-07-22T06:11:49.821Z,70.12
2018-07-22T06:12:49.634Z,69.59
2018-07-22T06:13:50.342Z,69.85
2018-07-22T06:14:52.165Z,69.70
2018-07-22T06:15:52.925Z,69.60
2018-07-22T06:16:53.714Z,69.19
2018-07-22T06:17:54.477Z,68.93
2018-07-22T06:18:55.255Z,68.51
2018-07-22T06:19:56.061Z,67.57
2018-07-22T06:20:57.833Z,67.66
2018-07-22T06:21:57.606Z,67.66
2018-07-22T06:22:58.384Z,66.28
2018-07-22T06:23:59.163Z,65.59
2018-07-22T06:24:59.971Z,65.19
2018-07-22T06:26:00.746Z,65.40
2018-07-22T06:27:01.535Z,64.67
2018-07-22T06:28:02.736Z,64.85
2018-07-22T06:29:03.000Z,63.28
2018-07-22T06:30:02.292Z,63.70
2018-07-22T06:40:23.864Z,62.64
2018-07-22T06:41:24.673Z,62.60
2018-07-22T06:42:25.447Z,61.57
2018-07-22T06:43:25.223Z,61.80
2018-07-22T06:44:27.009Z,61.71
2018-07-22T06:45:27.778Z,61.86
2018-07-22T06:46:28.630Z,61.46
2018-07-22T06:47:28.355Z,61.48
2018-07-22T06:48:30.135Z,61.67
2018-07-22T06:49:30.910Z,61.25
2018-07-22T06:50:31.681Z,61.19
2018-07-22T06:51:32.487Z,60.93
2018-07-22T06:52:33.275Z,61.12
2018-07-22T06:53:34.066Z,61.43
2018-07-22T06:54:33.816Z,61.79
2018-07-22T06:55:35.594Z,61.63
2018-07-22T06:56:36.400Z,61.89
2018-07-22T06:57:37.177Z,61.11
2018-07-22T06:58:37.948Z,61.00
2018-07-22T06:59:38.724Z,60.74
2018-07-22T07:00:40.496Z,61.26
2018-07-22T07:01:40.299Z,61.24
2018-07-22T07:02:41.080Z,61.46
2018-07-22T07:03:41.853Z,61.25
2018-07-22T07:04:42.628Z,61.14
2018-07-22T07:05:43.400Z,61.17
2018-07-22T07:06:44.211Z,60.80
2018-07-22T07:07:44.985Z,61.55
2018-07-22T07:08:45.762Z,61.22
2018-07-22T07:09:46.536Z,60.67
2018-07-22T07:10:47.310Z,61.01
2018-07-22T07:11:48.199Z,61.10
2018-07-22T07:12:47.901Z,60.91
2018-07-22T07:13:49.675Z,60.97
2018-07-22T07:14:51.451Z,61.02
2018-07-22T07:15:51.224Z,59.91
2018-07-22T07:16:52.051Z,59.90
2018-07-22T07:17:52.813Z,60.18
2018-07-22T07:18:53.676Z,60.42
2018-07-22T07:19:53.379Z,60.44
2018-07-22T07:20:55.188Z,60.04
2018-07-22T07:21:54.955Z,59.88
2018-07-22T07:22:56.728Z,59.81
2018-07-22T07:23:57.522Z,59.44
2018-07-22T07:24:58.296Z,60.01
2018-07-22T07:25:59.073Z,60.42
2018-07-22T07:26:59.877Z,60.76
2018-07-22T07:28:00.655Z,60.86
2018-07-22T07:29:01.428Z,59.88
2018-07-22T07:30:02.204Z,60.61
2018-07-22T07:31:02.980Z,60.89
2018-07-22T07:32:03.782Z,60.70
2018-07-22T07:33:04.559Z,61.21
2018-07-22T07:34:06.338Z,60.79
2018-07-22T07:35:06.117Z,60.92
2018-07-22T07:36:06.892Z,61.10
2018-07-22T07:37:07.690Z,60.92
2018-07-22T07:38:08.554Z,61.34
2018-07-22T07:39:08.253Z,61.26
2018-07-22T07:40:10.028Z,61.25
2018-07-22T07:41:10.815Z,61.58
2018-07-22T07:42:11.659Z,61.66
2018-07-22T07:43:11.389Z,61.87
2018-07-22T07:44:13.170Z,62.04
2018-07-22T07:45:13.952Z,62.74
2018-07-22T07:46:14.717Z,63.20
2018-07-22T07:47:14.523Z,63.42
2018-07-22T07:48:16.298Z,63.09
2018-07-22T07:49:17.074Z,63.14
2018-07-22T07:50:17.851Z,62.94
2018-07-22T07:51:18.629Z,62.45
2018-07-22T07:52:19.429Z,62.54
2018-07-22T07:53:20.243Z,62.27
2018-07-22T07:54:19.989Z,62.02
2018-07-22T07:55:21.765Z,62.33
2018-07-22T07:56:22.541Z,62.23
2018-07-22T07:57:23.352Z,61.95
2018-07-22T07:58:24.126Z,61.80
2018-07-22T07:59:24.912Z,61.21
2018-07-22T08:00:25.676Z,61.48
2018-07-22T08:01:26.453Z,61.40
2018-07-22T08:02:27.264Z,61.66
2018-07-22T08:03:27.038Z,61.88
2018-07-22T08:04:28.816Z,62.18
2018-07-22T08:05:29.645Z,63.02
2018-07-22T08:06:29.371Z,62.86
2018-07-22T08:07:31.173Z,61.90
2018-07-22T08:08:31.952Z,61.90
2018-07-22T08:09:32.722Z,61.86
2018-07-22T08:10:33.506Z,62.28
2018-07-22T08:11:34.297Z,61.65
2018-07-22T08:12:34.075Z,61.46
2018-07-22T08:13:35.856Z,61.51
2018-07-22T08:14:36.627Z,61.33
2018-07-22T08:15:37.404Z,61.48
2018-07-22T08:16:38.178Z,61.28
2018-07-22T08:17:38.993Z,61.52
2018-07-22T08:18:39.771Z,61.26
2018-07-22T08:19:40.543Z,61.31
2018-07-22T08:20:41.319Z,61.49
2018-07-22T08:21:42.215Z,61.09
2018-07-22T08:22:41.902Z,61.20
2018-07-22T08:23:42.681Z,61.44
2018-07-22T08:24:44.455Z,61.58
2018-07-22T08:25:45.230Z,61.25
2018-07-22T08:26:46.005Z,61.55
2018-07-22T08:27:46.812Z,61.47
2018-07-22T08:28:47.591Z,61.32
2018-07-22T08:29:48.367Z,61.28
2018-07-22T08:30:49.144Z,60.99
2018-07-22T08:31:49.920Z,60.99
2018-07-22T08:32:50.735Z,60.50
2018-07-22T08:33:51.503Z,60.09
2018-07-22T08:34:52.286Z,60.13
2018-07-22T08:35:53.056Z,60.31
2018-07-22T08:36:53.830Z,59.89
2018-07-22T08:37:54.635Z,59.59
2018-07-22T08:38:55.406Z,59.87
2018-07-22T08:39:56.287Z,59.07
2018-07-22T08:40:56.428Z,59.07
2018-07-22T08:41:57.683Z,59.32
2018-07-22T08:42:59.973Z,59.51
2018-07-22T08:43:57.235Z,59.63
2018-07-22T08:44:57.959Z,58.99
2018-07-22T08:53:35.702Z,57.95
2018-07-22T08:54:36.475Z,57.90
2018-07-22T08:55:37.487Z,57.83
2018-07-22T08:56:37.188Z,57.21
2018-07-22T08:57:38.966Z,56.58
2018-07-22T08:58:39.780Z,56.80
2018-07-22T08:59:40.629Z,56.69
2018-07-22T09:00:40.340Z,56.54
2018-07-22T09:01:42.113Z,56.42
2018-07-22T09:02:42.889Z,57.02
2018-07-22T09:03:42.693Z,56.74
2018-07-22T09:04:44.588Z,56.65
2018-07-22T09:05:44.433Z,55.80
2018-07-22T09:06:45.287Z,55.55
2018-07-22T09:07:46.130Z,54.70
2018-07-22T09:08:47.475Z,54.97
2018-07-22T09:09:47.383Z,55.16
2018-07-22T09:10:48.277Z,55.65
2018-07-22T09:11:49.074Z,55.09
2018-07-22T09:12:49.755Z,55.37
2018-07-22T09:13:51.568Z,55.30
2018-07-22T09:14:52.343Z,54.84
2018-07-22T09:15:53.121Z,55.35
2018-07-22T09:16:53.911Z,55.36
2018-07-22T09:17:54.841Z,55.19
2018-07-22T09:18:54.476Z,55.07
2018-07-22T09:19:56.252Z,55.07
2018-07-22T09:20:57.082Z,55.86
2018-07-22T09:21:56.841Z,55.22
2018-07-22T09:22:58.760Z,55.70
2018-07-22T09:23:58.492Z,56.13
2018-07-22T09:25:00.269Z,56.14
2018-07-22T09:26:01.189Z,56.39
2018-07-22T09:27:02.065Z,57.09
2018-07-22T09:28:01.880Z,57.00
2018-07-22T09:29:03.171Z,56.96
2018-07-22T09:30:02.872Z,56.88
2018-07-22T09:31:04.651Z,56.84
2018-07-22T09:32:05.425Z,56.84
2018-07-22T09:33:06.200Z,56.66
2018-07-22T09:34:07.028Z,56.98
2018-07-22T09:35:07.790Z,57.12
2018-07-22T09:36:08.693Z,57.00
2018-07-22T09:37:08.343Z,56.67
2018-07-22T09:38:10.131Z,55.87
2018-07-22T09:39:10.926Z,55.39
2018-07-22T09:40:11.703Z,55.42
2018-07-22T09:41:12.476Z,55.43
2018-07-22T09:42:13.253Z,55.32
2018-07-22T09:43:14.027Z,55.47
2018-07-22T09:44:14.839Z,55.19
2018-07-22T09:45:15.615Z,54.60
2018-07-22T09:46:16.390Z,55.05
2018-07-22T09:47:17.169Z,55.02
2018-07-22T09:48:17.939Z,55.26
2018-07-22T09:49:18.745Z,53.76
2018-07-22T09:50:19.530Z,54.11
2018-07-22T09:51:20.303Z,53.98
2018-07-22T09:52:22.079Z,52.82
2018-07-22T09:53:21.853Z,52.65
2018-07-22T09:54:22.657Z,52.37
2018-07-22T09:55:23.435Z,52.43
2018-07-22T09:56:24.216Z,52.62
2018-07-22T09:57:24.991Z,52.13
2018-07-22T09:58:25.808Z,51.47
2018-07-22T09:59:25.591Z,51.69
2018-07-22T10:00:27.360Z,50.93
2018-07-22T10:01:28.131Z,50.97
2018-07-22T10:02:28.910Z,50.22
2018-07-22T10:03:29.683Z,49.87
2018-07-22T10:04:30.522Z,49.73
2018-07-22T10:05:30.272Z,49.45
2018-07-22T10:06:32.093Z,49.18
2018-07-22T10:07:31.832Z,49.11
2018-07-22T10:08:33.603Z,49.28
2018-07-22T10:09:34.407Z,47.69
2018-07-22T10:10:35.186Z,47.48
2018-07-22T10:11:35.965Z,47.19
2018-07-22T10:12:37.730Z,47.40
2018-07-22T10:13:37.506Z,47.99
2018-07-22T10:14:38.448Z,49.75
2018-07-22T10:15:38.098Z,49.18
2018-07-22T10:16:39.881Z,49.49
2018-07-22T10:17:40.692Z,49.62
2018-07-22T10:18:40.433Z,48.56
2018-07-22T10:19:42.230Z,46.86
2018-07-22T10:20:43.008Z,46.85
2018-07-22T10:21:43.781Z,46.80
2018-07-22T10:22:44.564Z,46.79
2018-07-22T10:23:45.357Z,46.60
2018-07-22T10:24:46.158Z,46.55
2018-07-22T10:25:46.934Z,46.36
2018-07-22T10:26:47.712Z,46.27
2018-07-22T10:27:48.485Z,45.89
2018-07-22T10:28:49.274Z,45.78
2018-07-22T10:29:50.078Z,47.03
2018-07-22T10:30:50.852Z,47.58
2018-07-22T10:31:51.627Z,46.78
2018-07-22T10:32:52.408Z,45.61
2018-07-22T10:33:53.177Z,46.20
2018-07-22T10:34:53.981Z,45.49
2018-07-22T10:35:54.784Z,44.88
2018-07-22T10:36:54.533Z,44.82
2018-07-22T10:37:56.309Z,46.18
2018-07-22T10:38:57.086Z,46.75
2018-07-22T10:39:57.891Z,46.63
2018-07-22T10:40:58.676Z,46.40
2018-07-22T10:41:59.453Z,45.97
2018-07-22T10:43:00.233Z,46.55
2018-07-22T10:44:01.003Z,46.84
2018-07-22T10:45:01.815Z,46.35
2018-07-22T10:46:02.582Z,46.44
2018-07-22T10:47:03.363Z,46.71
2018-07-22T10:48:04.138Z,46.05
2018-07-22T10:49:04.927Z,46.42
2018-07-22T10:50:05.829Z,46.37
2018-07-22T10:51:05.590Z,46.39
2018-07-22T10:52:06.306Z,46.62
2018-07-22T10:53:08.087Z,46.84
2018-07-22T10:54:08.862Z,46.58
2018-07-22T10:55:09.674Z,47.08
2018-07-22T10:56:10.447Z,47.62
2018-07-22T10:57:11.227Z,46.98
2018-07-22T10:58:11.999Z,47.50
2018-07-22T10:59:12.776Z,47.44
2018-07-22T11:00:13.593Z,46.86
2018-07-22T11:01:14.358Z,46.49
2018-07-22T11:02:15.574Z,45.15
2018-07-22T11:03:15.889Z,46.13
2018-07-22T11:04:23.324Z,46.17
2018-07-22T11:05:24.618Z,46.24
2018-07-22T11:06:24.393Z,46.56
2018-07-22T11:07:25.171Z,47.14
2018-07-22T11:08:26.946Z,47.62
2018-07-22T11:09:26.750Z,47.98
2018-07-22T11:10:27.523Z,47.97
2018-07-22T11:11:28.299Z,46.34
2018-07-22T11:12:29.074Z,46.31
2018-07-22T11:13:29.863Z,47.08
2018-07-22T11:14:30.641Z,47.11
2018-07-22T11:15:30.429Z,46.44
2018-07-22T11:16:32.208Z,46.86
2018-07-22T11:17:32.982Z,46.97
2018-07-22T11:18:33.767Z,46.97
2018-07-22T11:19:34.534Z,47.30
2018-07-22T11:20:35.337Z,47.51
2018-07-22T11:21:36.112Z,47.87
2018-07-22T11:22:36.886Z,47.45
2018-07-22T11:23:37.664Z,46.80
2018-07-22T11:24:38.438Z,46.37
2018-07-22T11:25:39.242Z,46.27
2018-07-22T11:26:40.021Z,45.79
2018-07-22T11:27:40.801Z,45.75
2018-07-22T11:28:41.631Z,45.83
2018-07-22T11:29:41.348Z,45.18
2018-07-22T11:30:43.160Z,44.85
2018-07-22T11:31:42.932Z,44.85
2018-07-22T11:32:44.708Z,44.59
2018-07-22T11:33:45.484Z,42.87
2018-07-22T11:34:46.260Z,40.54
2018-07-22T11:35:47.065Z,40.74
2018-07-22T11:36:47.843Z,38.54
2018-07-22T11:37:48.622Z,38.25
2018-07-22T11:38:49.397Z,38.61
2018-07-22T11:39:50.174Z,39.62
2018-07-22T11:40:50.986Z,40.32
2018-07-22T11:41:51.761Z,40.18
2018-07-22T11:42:52.538Z,40.16
2018-07-22T11:43:53.341Z,40.73
2018-07-22T11:44:53.087Z,39.40
2018-07-22T11:45:54.889Z,38.45
2018-07-22T11:46:55.664Z,37.90
2018-07-22T11:47:56.446Z,37.58
2018-07-22T11:48:57.227Z,37.27
2018-07-22T11:49:57.997Z,37.86
2018-07-22T11:50:58.804Z,36.39
2018-07-22T11:51:59.592Z,36.83
2018-07-22T11:53:00.356Z,36.38
2018-07-22T11:54:01.137Z,36.37
2018-07-22T11:55:01.910Z,35.89
2018-07-22T11:56:02.714Z,35.52
2018-07-22T11:57:03.486Z,35.91
2018-07-22T11:58:04.261Z,35.89
2018-07-22T11:59:05.089Z,36.61
2018-07-22T12:00:04.866Z,36.33
2018-07-22T12:01:05.618Z,36.10
2018-07-22T12:02:07.398Z,36.14
2018-07-22T12:03:08.174Z,36.30
2018-07-22T12:04:08.949Z,35.92
2018-07-22T12:05:09.726Z,36.56
2018-07-22T12:06:10.547Z,36.58
2018-07-22T12:07:11.304Z,36.83
2018-07-22T12:08:12.079Z,36.83
2018-07-22T12:09:12.855Z,36.27
2018-07-22T12:10:13.639Z,35.04
2018-07-22T12:11:14.437Z,35.08
2018-07-22T12:12:15.244Z,34.81
2018-07-22T12:13:14.990Z,35.07
2018-07-22T12:14:16.768Z,34.95
2018-07-22T12:15:17.537Z,35.03
2018-07-22T12:16:18.349Z,35.47
2018-07-22T12:17:19.124Z,35.42
2018-07-22T12:18:19.903Z,35.53
2018-07-22T12:19:20.677Z,35.18
2018-07-22T12:20:21.458Z,35.07
2018-07-22T12:21:22.308Z,35.22
2018-07-22T12:22:22.045Z,35.18
2018-07-22T12:23:23.816Z,34.44
2018-07-22T12:24:24.593Z,34.23
2018-07-22T12:25:25.375Z,33.69
2018-07-22T12:26:26.178Z,32.92
2018-07-22T12:27:26.954Z,32.45
2018-07-22T12:28:27.732Z,31.95
2018-07-22T12:29:28.519Z,31.73
2018-07-22T12:30:29.289Z,31.66
2018-07-22T12:31:30.100Z,32.57
2018-07-22T12:32:30.875Z,32.89
2018-07-22T12:33:31.645Z,32.78
2018-07-22T12:34:32.442Z,32.49
2018-07-22T12:35:33.213Z,32.11
2018-07-22T12:36:34.017Z,32.10
2018-07-22T12:37:34.788Z,31.99
2018-07-22T12:38:35.569Z,32.35
2018-07-22T12:39:36.345Z,32.12
2018-07-22T12:40:37.115Z,32.03
2018-07-22T12:41:37.923Z,32.76
2018-07-22T12:42:41.697Z,32.96
2018-07-22T12:43:39.472Z,33.23
2018-07-22T12:44:40.253Z,33.32
2018-07-22T12:45:41.029Z,33.18
2018-07-22T12:46:41.850Z,32.75
2018-07-22T12:47:42.620Z,32.71
2018-07-22T12:48:43.404Z,32.89
2018-07-22T12:49:44.179Z,32.99
2018-07-22T12:50:44.956Z,32.77
2018-07-22T12:51:45.848Z,32.76
2018-07-22T12:52:45.559Z,32.29
2018-07-22T12:53:47.338Z,31.61
2018-07-22T12:54:47.197Z,31.43
2018-07-22T12:55:47.910Z,31.35
2018-07-22T12:56:49.722Z,31.79
2018-07-22T12:57:50.490Z,32.33
2018-07-22T12:58:51.271Z,31.55
2018-07-22T12:59:52.042Z,30.93
2018-07-22T13:00:53.254Z,31.31
2018-07-22T13:07:38.227Z,31.52
2018-07-22T13:08:39.004Z,31.68
2018-07-22T13:09:39.794Z,32.29
2018-07-22T13:10:40.568Z,32.48
2018-07-22T13:11:41.345Z,32.43
2018-07-22T13:12:42.154Z,32.37
2018-07-22T13:13:42.922Z,32.64
2018-07-22T13:14:43.704Z,32.71
2018-07-22T13:15:44.473Z,32.20
2018-07-22T13:16:45.252Z,31.96
2018-07-22T13:17:46.056Z,32.60
2018-07-22T13:18:46.868Z,32.42
2018-07-22T13:19:47.603Z,32.16
2018-07-22T13:20:48.375Z,31.44
2018-07-22T13:21:49.152Z,30.63
2018-07-22T13:22:49.955Z,31.86
2018-07-22T13:23:50.730Z,32.00
2018-07-22T13:24:51.506Z,31.66
2018-07-22T13:25:52.281Z,31.98
2018-07-22T13:26:53.068Z,32.06
2018-07-22T13:27:54.876Z,31.95
2018-07-22T13:28:54.658Z,31.45
2018-07-22T13:29:55.438Z,32.13
2018-07-22T13:30:56.210Z,31.64
2018-07-22T13:31:56.992Z,31.72
2018-07-22T13:32:57.797Z,31.87
2018-07-22T13:33:58.581Z,32.58
2018-07-22T13:34:59.353Z,31.74
2018-07-22T13:36:00.130Z,32.03
2018-07-22T13:37:00.905Z,32.07
2018-07-22T13:38:01.758Z,32.23
2018-07-22T13:39:01.486Z,32.31
2018-07-22T13:40:03.260Z,32.75
2018-07-22T13:41:04.033Z,33.02
2018-07-22T13:42:04.816Z,33.19
2018-07-22T13:43:05.621Z,32.97
2018-07-22T13:44:06.407Z,33.22
2018-07-22T13:45:07.234Z,32.80
2018-07-22T13:46:06.959Z,32.85
2018-07-22T13:47:08.731Z,32.90